createdAt,value
2018-07-16T19:25:40.106Z,50.10
2018-07-16T19:28:07.927Z,51.50
2018-07-16T19:30:35.906Z,52.50
2018-07-16T19:33:03.694Z,53.30
2018-07-16T19:35:31.448Z,54.40
2018-07-16T19:37:59.168Z,54.30
2018-07-16T19:40:27.206Z,54.70
2018-07-16T19:42:54.946Z,54.90
2018-07-16T19:45:22.685Z,55.20
2018-07-16T19:47:50.378Z,55.60
2018-07-16T19:50:18.146Z,55.80
2018-07-16T19:52:45.903Z,55.90
2018-07-16T19:55:13.742Z,56.20
2018-07-16T19:57:41.552Z,56.10
2018-07-16T20:00:09.371Z,55.80
2018-07-16T20:05:04.713Z,55.40
2018-07-16T20:07:32.482Z,56.00
2018-07-16T20:10:00.284Z,55.40
2018-07-16T20:12:30.568Z,55.70
2018-07-16T20:14:59.123Z,56.70
2018-07-16T20:17:26.914Z,56.80
2018-07-16T20:19:54.727Z,56.90
2018-07-16T20:22:22.455Z,57.30
2018-07-16T20:24:50.179Z,57.60
2018-07-16T20:27:18.002Z,58.10
2018-07-16T20:29:45.750Z,58.80
2018-07-16T20:32:13.507Z,58.60
2018-07-16T20:34:41.270Z,58.50
2018-07-16T20:37:09.142Z,58.20
2018-07-16T20:39:37.030Z,57.80
2018-07-16T20:42:04.790Z,57.60
2018-07-16T20:44:32.563Z,57.60
2018-07-16T20:47:00.315Z,58.10
2018-07-16T20:49:28.158Z,58.60
2018-07-16T20:51:56.131Z,59.30
2018-07-16T20:54:23.898Z,60.00
2018-07-16T20:56:51.664Z,60.80
2018-07-16T20:59:19.398Z,61.50
2018-07-16T21:01:47.328Z,61.90
2018-07-16T21:04:15.057Z,63.00
2018-07-16T21:06:42.839Z,63.70
2018-07-16T21:09:10.549Z,63.90
2018-07-16T21:11:38.574Z,63.20
2018-07-16T21:14:06.479Z,62.30
2018-07-16T21:16:34.347Z,63.50
2018-07-16T21:19:02.062Z,65.60
2018-07-16T21:21:29.916Z,66.20
2018-07-16T21:23:57.683Z,64.30
2018-07-16T21:26:25.565Z,63.50
2018-07-16T21:28:53.239Z,63.00
2018-07-16T21:31:20.939Z,63.40
2018-07-16T21:33:48.655Z,63.90
2018-07-16T21:36:16.423Z,64.50
2018-07-16T21:38:44.142Z,64.20
2018-07-16T21:41:11.910Z,64.00
2018-07-16T21:43:39.615Z,63.90
2018-07-16T21:46:07.850Z,64.20
2018-07-16T21:48:35.511Z,64.60
2018-07-16T21:51:03.284Z,64.70
2018-07-16T21:53:31.029Z,65.20
2018-07-16T21:55:58.735Z,65.10
2018-07-16T21:58:26.462Z,64.80
2018-07-16T22:00:54.151Z,64.70
2018-07-16T22:03:21.882Z,64.50
2018-07-16T22:05:49.600Z,64.30
2018-07-16T22:08:17.326Z,64.50
2018-07-16T22:10:45.139Z,64.60
2018-07-16T22:13:12.894Z,64.50
2018-07-16T22:15:40.669Z,64.30
2018-07-16T22:18:08.443Z,64.10
2018-07-16T22:23:03.820Z,61.50
2018-07-16T22:25:31.597Z,60.50
2018-07-16T22:27:59.306Z,60.40
2018-07-16T22:30:27.079Z,60.00
2018-07-16T22:32:54.810Z,60.20
2018-07-16T22:35:22.520Z,60.70
2018-07-16T22:37:50.230Z,60.90
2018-07-16T22:40:18.022Z,61.20
2018-07-16T22:42:45.751Z,61.70
2018-07-16T22:45:13.435Z,61.40
2018-07-16T22:47:41.095Z,61.80
2018-07-16T22:50:08.838Z,64.30
2018-07-16T22:52:36.515Z,66.00
2018-07-16T22:55:04.210Z,66.50
2018-07-16T22:57:32.027Z,67.40
2018-07-16T22:59:59.728Z,67.90
2018-07-16T23:02:27.491Z,68.70
2018-07-16T23:04:55.275Z,70.20
2018-07-16T23:07:23.192Z,71.30
2018-07-16T23:09:50.943Z,70.70
2018-07-16T23:12:18.703Z,70.20
2018-07-16T23:14:46.432Z,69.50
2018-07-16T23:17:14.233Z,69.90
2018-07-16T23:19:41.947Z,72.10
2018-07-16T23:22:09.663Z,70.10
2018-07-16T23:24:37.347Z,69.60
2018-07-16T23:27:05.292Z,69.80
2018-07-16T23:29:33.007Z,70.50
2018-07-16T23:32:00.730Z,72.80
2018-07-16T23:34:28.465Z,74.50
2018-07-16T23:36:56.139Z,75.10
2018-07-16T23:39:23.949Z,75.70
2018-07-16T23:41:51.672Z,74.10
2018-07-16T23:44:19.466Z,74.90
2018-07-16T23:46:47.167Z,76.20
2018-07-16T23:49:15.035Z,77.40
2018-07-16T23:51:42.711Z,78.30
2018-07-16T23:54:10.567Z,78.50
2018-07-16T23:56:38.328Z,78.80
2018-07-16T23:59:06.095Z,78.40
